Florennes Air Base, Belgique

20:52 CEST le 02 septembre 2014 (GMT +0200)
Florennes Air Base | Change Station
CLOSE
Current Station
Aéroport
Location: Florennes,
Altitude: 981 ft
Stations météo à proximité

Alt. 981 ft 50.24 °N, 4.65 °E | Updated 27 minutes ago

Partly Cloudy
Partiellement nuageux
61 ° F
Paraît 61 ° F
N
7
Vent Variable Vent de NNE

Aujourd'hui
Haut(e) -- | Bas -- ° F
--% Risque de précip.
Hier
Haut(e) -- | Bas -- ° F
Precip. -- pouce
6:57 AM 8:23 PM
Premier quartier, 54% visible
Pression 30.21 pouce
Visibilité 6.2 Miles terrestres
Nuages Peu 4000 ft
Point de rosée 54 ° F
Humidité 77%
Précipitations 0.00 pouce
Profondeur de la couche neigeuse Non disponible.
UV 0 sur 12
Pollen Non disponible.
Qualité de l'air Non disponible.
Flu Activity Non disponible.
METAR EBFS 021825Z 03006KT 9999 FEW040 16/12 Q1023 BLU BLU

More Conditions Fewer Conditions

Pression 30.21 pouce
Visibilité 6.2 Miles terrestres
Nuages Peu 4000 ft
Point de rosée 54 ° F
Humidité 77%
Précipitations 0.00 pouce
Profondeur de la couche neigeuse Non disponible.
UV 0 sur 12
Pollen Non disponible.
Qualité de l'air Non disponible.
Flu Activity Non disponible.
METAR EBFS 021825Z 03006KT 9999 FEW040 16/12 Q1023 BLU BLU

More Conditions Fewer Conditions

10-Day Weather Forecast

Almanac

Astronomie

Sep. 02, 2014 Lever Coucher
Temps réel 06:57 CEST 20:23 CEST
Crépuscule civil 06:23 CEST 20:57 CEST
Crépuscule nautique 05:42 CEST 21:38 CEST
Crépuscule astronomique 04:57 CEST 22:23 CEST
Lune 15:09 CEST Pas de coucher de lune
Durée de lumière visible 14h 34m
Longueur du jour
13h 26m
Tomorrow will be 3m 40s shorter.
Premier quartier, 54% of the Moon is Illuminated
Aujourd'hui
Premier quartier
Sep 8
Pleine lune
Sep 15
Dernier quartier
Sep 24
Nouveau
Oct 1
Premier quartier

Extrêmes aujourd'hui

Country Highs Country Lows

Community

WunderPhotos

Upload Photos

1,749,743 Photos téléchargées !

WunderBlogs® & News

By Dr. Jeff Masters
Director of Meteorology, Weather Underground
By Kari Strenfel
Meteorologist, Weather Underground
By Christopher C. Burt
Weather Historian, Weather Underground
September 2, 2014
September 2, 2014
September 2, 2014

Nearby

Qualité de l'air

Not available.

Épaisseur de neige

Not available.

Activité sismique

Ville Distance Mag. Time & Date
No recent earthquake activity has been reported nearby.
Minimum magnitude displayed is 2.5.

Températures des eaux côtières

Lieu Température
Aucun rapport de station

Stations météo à proximité